sensor_id;sensor_type;location;lat;lon;timestamp;P1;durP1;ratioP1;P2;durP2;ratioP2
80694;SDS011;70059;42.702;23.312;2023-07-20T00:01:05;13.57;;;8.90;;
80694;SDS011;70059;42.702;23.312;2023-07-20T00:03:31;11.32;;;8.68;;
80694;SDS011;70059;42.702;23.312;2023-07-20T00:05:56;12.30;;;9.05;;
80694;SDS011;70059;42.702;23.312;2023-07-20T00:08:22;11.80;;;8.73;;
80694;SDS011;70059;42.702;23.312;2023-07-20T00:10:47;11.40;;;8.50;;
80694;SDS011;70059;42.702;23.312;2023-07-20T00:13:13;9.48;;;8.68;;
80694;SDS011;70059;42.702;23.312;2023-07-20T00:15:41;11.60;;;8.93;;
80694;SDS011;70059;42.702;23.312;2023-07-20T00:18:07;11.05;;;8.90;;
80694;SDS011;70059;42.702;23.312;2023-07-20T00:20:32;9.18;;;8.40;;
80694;SDS011;70059;42.702;23.312;2023-07-20T00:22:58;11.70;;;8.80;;
80694;SDS011;70059;42.702;23.312;2023-07-20T00:25:24;15.40;;;8.45;;
80694;SDS011;70059;42.702;23.312;2023-07-20T00:27:50;9.57;;;8.27;;
80694;SDS011;70059;42.702;23.312;2023-07-20T00:30:16;9.73;;;8.23;;
80694;SDS011;70059;42.702;23.312;2023-07-20T00:32:43;9.48;;;8.55;;
80694;SDS011;70059;42.702;23.312;2023-07-20T00:35:09;39.58;;;9.52;;
80694;SDS011;70059;42.702;23.312;2023-07-20T00:37:36;12.13;;;8.90;;
80694;SDS011;70059;42.702;23.312;2023-07-20T00:40:03;9.93;;;8.85;;
80694;SDS011;70059;42.702;23.312;2023-07-20T00:42:29;10.60;;;8.77;;
80694;SDS011;70059;42.702;23.312;2023-07-20T00:44:55;9.65;;;8.32;;
80694;SDS011;70059;42.702;23.312;2023-07-20T00:47:21;12.93;;;8.98;;
80694;SDS011;70059;42.702;23.312;2023-07-20T00:49:47;11.30;;;8.98;;
80694;SDS011;70059;42.702;23.312;2023-07-20T00:52:13;9.88;;;8.90;;
80694;SDS011;70059;42.702;23.312;2023-07-20T00:54:41;10.27;;;9.18;;
80694;SDS011;70059;42.702;23.312;2023-07-20T00:57:07;11.07;;;8.70;;
80694;SDS011;70059;42.702;23.312;2023-07-20T00:59:36;9.45;;;8.65;;
80694;SDS011;70059;42.702;23.312;2023-07-20T01:02:02;13.48;;;8.75;;
80694;SDS011;70059;42.702;23.312;2023-07-20T01:04:28;9.18;;;8.30;;
80694;SDS011;70059;42.702;23.312;2023-07-20T01:07:01;10.07;;;9.07;;
80694;SDS011;70059;42.702;23.312;2023-07-20T01:09:34;14.40;;;8.88;;
80694;SDS011;70059;42.702;23.312;2023-07-20T01:12:16;11.52;;;9.20;;
80694;SDS011;70059;42.702;23.312;2023-07-20T01:14:46;10.00;;;9.00;;
80694;SDS011;70059;42.702;23.312;2023-07-20T01:17:12;9.85;;;8.90;;
80694;SDS011;70059;42.702;23.312;2023-07-20T01:19:38;10.52;;;9.27;;
80694;SDS011;70059;42.702;23.312;2023-07-20T01:27:28;11.35;;;9.45;;
80694;SDS011;70059;42.702;23.312;2023-07-20T01:30:07;10.52;;;9.48;;
80694;SDS011;70059;42.702;23.312;2023-07-20T01:32:42;11.65;;;10.45;;
80694;SDS011;70059;42.702;23.312;2023-07-20T01:35:10;12.00;;;10.40;;
80694;SDS011;70059;42.702;23.312;2023-07-20T01:37:39;13.63;;;11.27;;
80694;SDS011;70059;42.702;23.312;2023-07-20T01:40:08;12.20;;;10.82;;
80694;SDS011;70059;42.702;23.312;2023-07-20T01:42:35;13.73;;;10.52;;
80694;SDS011;70059;42.702;23.312;2023-07-20T01:45:01;10.90;;;9.80;;
80694;SDS011;70059;42.702;23.312;2023-07-20T01:47:27;11.57;;;9.93;;
80694;SDS011;70059;42.702;23.312;2023-07-20T01:49:52;13.40;;;10.57;;
80694;SDS011;70059;42.702;23.312;2023-07-20T01:52:18;11.90;;;9.88;;
80694;SDS011;70059;42.702;23.312;2023-07-20T01:54:43;10.98;;;9.95;;
80694;SDS011;70059;42.702;23.312;2023-07-20T01:57:09;13.82;;;10.05;;
80694;SDS011;70059;42.702;23.312;2023-07-20T01:59:35;11.27;;;9.30;;
80694;SDS011;70059;42.702;23.312;2023-07-20T02:02:00;10.82;;;9.27;;
80694;SDS011;70059;42.702;23.312;2023-07-20T02:04:26;12.55;;;9.60;;
80694;SDS011;70059;42.702;23.312;2023-07-20T02:06:52;15.70;;;9.48;;
80694;SDS011;70059;42.702;23.312;2023-07-20T02:09:17;10.70;;;8.43;;
80694;SDS011;70059;42.702;23.312;2023-07-20T02:11:43;12.20;;;9.73;;
80694;SDS011;70059;42.702;23.312;2023-07-20T02:14:09;13.77;;;9.45;;
80694;SDS011;70059;42.702;23.312;2023-07-20T02:16:34;14.25;;;9.50;;
80694;SDS011;70059;42.702;23.312;2023-07-20T02:19:00;10.90;;;8.95;;
80694;SDS011;70059;42.702;23.312;2023-07-20T02:21:25;10.63;;;9.20;;
80694;SDS011;70059;42.702;23.312;2023-07-20T02:23:51;10.00;;;9.02;;
80694;SDS011;70059;42.702;23.312;2023-07-20T02:26:17;11.38;;;8.40;;
80694;SDS011;70059;42.702;23.312;2023-07-20T02:28:42;11.13;;;8.90;;
80694;SDS011;70059;42.702;23.312;2023-07-20T02:31:08;12.18;;;9.48;;
80694;SDS011;70059;42.702;23.312;2023-07-20T02:33:34;20.35;;;9.80;;
80694;SDS011;70059;42.702;23.312;2023-07-20T02:35:59;12.80;;;9.10;;
80694;SDS011;70059;42.702;23.312;2023-07-20T02:38:25;14.63;;;9.38;;
80694;SDS011;70059;42.702;23.312;2023-07-20T02:40:51;16.95;;;9.50;;
80694;SDS011;70059;42.702;23.312;2023-07-20T02:43:16;13.55;;;9.40;;
80694;SDS011;70059;42.702;23.312;2023-07-20T02:45:42;13.25;;;9.20;;
80694;SDS011;70059;42.702;23.312;2023-07-20T02:48:09;12.88;;;9.15;;
80694;SDS011;70059;42.702;23.312;2023-07-20T02:50:35;10.25;;;8.27;;
80694;SDS011;70059;42.702;23.312;2023-07-20T02:53:01;10.90;;;8.85;;
80694;SDS011;70059;42.702;23.312;2023-07-20T02:55:27;11.60;;;9.65;;
80694;SDS011;70059;42.702;23.312;2023-07-20T02:57:57;12.13;;;9.40;;
80694;SDS011;70059;42.702;23.312;2023-07-20T03:00:22;11.52;;;9.25;;
80694;SDS011;70059;42.702;23.312;2023-07-20T03:02:48;11.38;;;8.80;;
80694;SDS011;70059;42.702;23.312;2023-07-20T03:05:20;12.40;;;9.07;;
80694;SDS011;70059;42.702;23.312;2023-07-20T03:07:48;11.15;;;9.10;;
80694;SDS011;70059;42.702;23.312;2023-07-20T03:10:14;9.85;;;8.95;;
80694;SDS011;70059;42.702;23.312;2023-07-20T03:12:39;11.27;;;9.25;;
80694;SDS011;70059;42.702;23.312;2023-07-20T03:15:06;10.27;;;8.65;;
80694;SDS011;70059;42.702;23.312;2023-07-20T03:17:32;16.48;;;9.85;;
80694;SDS011;70059;42.702;23.312;2023-07-20T03:19:57;13.13;;;9.68;;
80694;SDS011;70059;42.702;23.312;2023-07-20T03:22:24;13.77;;;9.73;;
80694;SDS011;70059;42.702;23.312;2023-07-20T03:24:50;14.55;;;9.25;;
80694;SDS011;70059;42.702;23.312;2023-07-20T03:27:17;11.57;;;9.35;;
80694;SDS011;70059;42.702;23.312;2023-07-20T03:29:43;17.25;;;9.75;;
80694;SDS011;70059;42.702;23.312;2023-07-20T03:32:09;14.27;;;9.48;;
80694;SDS011;70059;42.702;23.312;2023-07-20T03:34:35;11.18;;;9.63;;
80694;SDS011;70059;42.702;23.312;2023-07-20T03:37:01;14.93;;;9.35;;
80694;SDS011;70059;42.702;23.312;2023-07-20T03:39:29;13.68;;;9.52;;
80694;SDS011;70059;42.702;23.312;2023-07-20T03:41:55;12.00;;;9.80;;
80694;SDS011;70059;42.702;23.312;2023-07-20T03:44:23;18.20;;;9.70;;
80694;SDS011;70059;42.702;23.312;2023-07-20T03:46:49;14.98;;;9.40;;
80694;SDS011;70059;42.702;23.312;2023-07-20T03:49:14;13.90;;;9.90;;
80694;SDS011;70059;42.702;23.312;2023-07-20T03:51:40;13.32;;;9.50;;
80694;SDS011;70059;42.702;23.312;2023-07-20T03:54:05;14.25;;;9.45;;
80694;SDS011;70059;42.702;23.312;2023-07-20T03:56:32;20.35;;;10.25;;
80694;SDS011;70059;42.702;23.312;2023-07-20T03:59:00;12.93;;;9.98;;
80694;SDS011;70059;42.702;23.312;2023-07-20T04:01:26;19.88;;;10.70;;
80694;SDS011;70059;42.702;23.312;2023-07-20T04:03:52;16.58;;;9.85;;
80694;SDS011;70059;42.702;23.312;2023-07-20T04:06:17;16.48;;;9.52;;
80694;SDS011;70059;42.702;23.312;2023-07-20T04:08:44;18.90;;;9.48;;
80694;SDS011;70059;42.702;23.312;2023-07-20T04:11:09;21.67;;;9.70;;
80694;SDS011;70059;42.702;23.312;2023-07-20T04:13:35;11.43;;;9.90;;
80694;SDS011;70059;42.702;23.312;2023-07-20T04:16:01;14.02;;;9.60;;
80694;SDS011;70059;42.702;23.312;2023-07-20T04:18:27;14.45;;;10.50;;
80694;SDS011;70059;42.702;23.312;2023-07-20T04:20:53;26.88;;;11.68;;
80694;SDS011;70059;42.702;23.312;2023-07-20T04:23:19;20.20;;;10.50;;
80694;SDS011;70059;42.702;23.312;2023-07-20T04:25:44;17.20;;;10.52;;
80694;SDS011;70059;42.702;23.312;2023-07-20T04:28:10;16.25;;;10.40;;
80694;SDS011;70059;42.702;23.312;2023-07-20T04:30:36;15.65;;;10.13;;
80694;SDS011;70059;42.702;23.312;2023-07-20T04:33:05;19.35;;;10.90;;
80694;SDS011;70059;42.702;23.312;2023-07-20T04:38:19;14.43;;;10.70;;
80694;SDS011;70059;42.702;23.312;2023-07-20T04:40:46;21.27;;;11.70;;
80694;SDS011;70059;42.702;23.312;2023-07-20T04:43:14;14.02;;;11.18;;
80694;SDS011;70059;42.702;23.312;2023-07-20T04:45:40;13.73;;;10.77;;
80694;SDS011;70059;42.702;23.312;2023-07-20T04:48:12;15.07;;;10.43;;
80694;SDS011;70059;42.702;23.312;2023-07-20T04:50:42;20.73;;;11.15;;
80694;SDS011;70059;42.702;23.312;2023-07-20T04:53:10;12.95;;;10.63;;
80694;SDS011;70059;42.702;23.312;2023-07-20T04:55:39;14.02;;;10.80;;
80694;SDS011;70059;42.702;23.312;2023-07-20T04:58:06;23.15;;;11.18;;
80694;SDS011;70059;42.702;23.312;2023-07-20T05:00:32;18.90;;;11.25;;
80694;SDS011;70059;42.702;23.312;2023-07-20T05:02:59;16.42;;;11.07;;
80694;SDS011;70059;42.702;23.312;2023-07-20T05:05:24;13.90;;;9.93;;
80694;SDS011;70059;42.702;23.312;2023-07-20T05:10:19;21.40;;;10.80;;
80694;SDS011;70059;42.702;23.312;2023-07-20T05:12:45;17.02;;;10.95;;
80694;SDS011;70059;42.702;23.312;2023-07-20T05:15:11;17.15;;;10.85;;
80694;SDS011;70059;42.702;23.312;2023-07-20T05:17:36;19.30;;;10.88;;
80694;SDS011;70059;42.702;23.312;2023-07-20T05:20:02;16.88;;;11.30;;
80694;SDS011;70059;42.702;23.312;2023-07-20T05:22:29;13.55;;;10.73;;
80694;SDS011;70059;42.702;23.312;2023-07-20T05:24:55;15.90;;;10.77;;
80694;SDS011;70059;42.702;23.312;2023-07-20T05:27:20;15.63;;;10.15;;
80694;SDS011;70059;42.702;23.312;2023-07-20T05:29:46;20.30;;;10.57;;
80694;SDS011;70059;42.702;23.312;2023-07-20T05:32:13;22.70;;;11.50;;
80694;SDS011;70059;42.702;23.312;2023-07-20T05:34:39;23.67;;;11.68;;
80694;SDS011;70059;42.702;23.312;2023-07-20T05:37:05;16.70;;;10.68;;
80694;SDS011;70059;42.702;23.312;2023-07-20T05:39:34;17.25;;;10.13;;
80694;SDS011;70059;42.702;23.312;2023-07-20T05:42:03;15.52;;;10.05;;
80694;SDS011;70059;42.702;23.312;2023-07-20T05:44:29;18.63;;;10.85;;
80694;SDS011;70059;42.702;23.312;2023-07-20T05:46:54;18.20;;;10.88;;
80694;SDS011;70059;42.702;23.312;2023-07-20T05:49:20;19.02;;;10.68;;
80694;SDS011;70059;42.702;23.312;2023-07-20T05:51:46;18.77;;;10.00;;
80694;SDS011;70059;42.702;23.312;2023-07-20T05:54:12;14.13;;;11.10;;
80694;SDS011;70059;42.702;23.312;2023-07-20T05:56:38;14.98;;;10.93;;
80694;SDS011;70059;42.702;23.312;2023-07-20T05:59:03;14.68;;;10.55;;
80694;SDS011;70059;42.702;23.312;2023-07-20T06:01:29;17.00;;;10.40;;
80694;SDS011;70059;42.702;23.312;2023-07-20T06:03:55;15.38;;;11.57;;
80694;SDS011;70059;42.702;23.312;2023-07-20T06:06:20;13.88;;;11.30;;
80694;SDS011;70059;42.702;23.312;2023-07-20T06:08:46;18.92;;;11.48;;
80694;SDS011;70059;42.702;23.312;2023-07-20T06:11:15;19.10;;;11.32;;
80694;SDS011;70059;42.702;23.312;2023-07-20T06:13:41;15.75;;;11.30;;
80694;SDS011;70059;42.702;23.312;2023-07-20T06:16:09;14.45;;;10.70;;
80694;SDS011;70059;42.702;23.312;2023-07-20T06:18:41;16.35;;;12.55;;
80694;SDS011;70059;42.702;23.312;2023-07-20T06:21:13;23.40;;;12.00;;
80694;SDS011;70059;42.702;23.312;2023-07-20T06:23:39;14.02;;;10.57;;
80694;SDS011;70059;42.702;23.312;2023-07-20T06:26:08;18.98;;;11.07;;
80694;SDS011;70059;42.702;23.312;2023-07-20T06:28:34;21.98;;;10.75;;
80694;SDS011;70059;42.702;23.312;2023-07-20T06:31:00;17.98;;;11.45;;
80694;SDS011;70059;42.702;23.312;2023-07-20T06:33:26;24.95;;;12.57;;
80694;SDS011;70059;42.702;23.312;2023-07-20T06:35:52;18.45;;;11.30;;
80694;SDS011;70059;42.702;23.312;2023-07-20T06:38:18;20.80;;;12.23;;
80694;SDS011;70059;42.702;23.312;2023-07-20T06:40:47;16.63;;;11.65;;
80694;SDS011;70059;42.702;23.312;2023-07-20T06:43:12;21.23;;;12.88;;
80694;SDS011;70059;42.702;23.312;2023-07-20T06:45:38;16.40;;;12.20;;
80694;SDS011;70059;42.702;23.312;2023-07-20T06:48:04;26.10;;;13.63;;
80694;SDS011;70059;42.702;23.312;2023-07-20T06:50:30;17.40;;;11.70;;
80694;SDS011;70059;42.702;23.312;2023-07-20T06:52:55;20.65;;;12.00;;
80694;SDS011;70059;42.702;23.312;2023-07-20T06:55:21;21.02;;;12.75;;
80694;SDS011;70059;42.702;23.312;2023-07-20T06:57:47;24.20;;;13.35;;
80694;SDS011;70059;42.702;23.312;2023-07-20T07:00:12;22.50;;;12.45;;
80694;SDS011;70059;42.702;23.312;2023-07-20T07:02:38;18.10;;;12.60;;
80694;SDS011;70059;42.702;23.312;2023-07-20T07:05:07;22.83;;;13.80;;
80694;SDS011;70059;42.702;23.312;2023-07-20T07:07:38;21.25;;;12.93;;
80694;SDS011;70059;42.702;23.312;2023-07-20T07:10:04;15.82;;;11.98;;
80694;SDS011;70059;42.702;23.312;2023-07-20T07:12:30;17.15;;;12.15;;
80694;SDS011;70059;42.702;23.312;2023-07-20T07:14:56;22.00;;;11.18;;
80694;SDS011;70059;42.702;23.312;2023-07-20T07:17:22;22.50;;;12.57;;
80694;SDS011;70059;42.702;23.312;2023-07-20T07:19:47;16.92;;;12.20;;
80694;SDS011;70059;42.702;23.312;2023-07-20T07:22:13;16.05;;;12.38;;
80694;SDS011;70059;42.702;23.312;2023-07-20T07:24:42;12.52;;;11.35;;
80694;SDS011;70059;42.702;23.312;2023-07-20T07:27:08;17.33;;;11.85;;
80694;SDS011;70059;42.702;23.312;2023-07-20T07:29:34;35.67;;;23.20;;
80694;SDS011;70059;42.702;23.312;2023-07-20T07:31:59;21.83;;;11.95;;
80694;SDS011;70059;42.702;23.312;2023-07-20T07:34:26;18.88;;;11.43;;
80694;SDS011;70059;42.702;23.312;2023-07-20T07:36:52;15.90;;;10.48;;
80694;SDS011;70059;42.702;23.312;2023-07-20T07:39:18;18.05;;;11.20;;
80694;SDS011;70059;42.702;23.312;2023-07-20T07:41:44;23.35;;;11.95;;
80694;SDS011;70059;42.702;23.312;2023-07-20T07:44:10;20.08;;;13.18;;
80694;SDS011;70059;42.702;23.312;2023-07-20T07:46:36;16.92;;;10.50;;
80694;SDS011;70059;42.702;23.312;2023-07-20T07:49:02;39.80;;;13.65;;
80694;SDS011;70059;42.702;23.312;2023-07-20T07:51:28;23.80;;;11.63;;
80694;SDS011;70059;42.702;23.312;2023-07-20T07:53:54;26.10;;;11.57;;
80694;SDS011;70059;42.702;23.312;2023-07-20T07:56:23;19.40;;;12.52;;
80694;SDS011;70059;42.702;23.312;2023-07-20T07:58:49;18.80;;;11.93;;
80694;SDS011;70059;42.702;23.312;2023-07-20T08:01:16;20.98;;;12.00;;
80694;SDS011;70059;42.702;23.312;2023-07-20T08:03:44;19.27;;;11.52;;
80694;SDS011;70059;42.702;23.312;2023-07-20T08:06:12;19.35;;;12.25;;
80694;SDS011;70059;42.702;23.312;2023-07-20T08:08:38;21.88;;;11.93;;
80694;SDS011;70059;42.702;23.312;2023-07-20T08:11:04;20.45;;;11.70;;
80694;SDS011;70059;42.702;23.312;2023-07-20T08:13:30;14.75;;;10.15;;
80694;SDS011;70059;42.702;23.312;2023-07-20T08:15:56;14.80;;;10.85;;
80694;SDS011;70059;42.702;23.312;2023-07-20T08:18:22;15.55;;;10.48;;
80694;SDS011;70059;42.702;23.312;2023-07-20T08:20:48;13.50;;;10.93;;
80694;SDS011;70059;42.702;23.312;2023-07-20T08:23:14;18.20;;;10.75;;
80694;SDS011;70059;42.702;23.312;2023-07-20T08:25:40;20.23;;;10.45;;
80694;SDS011;70059;42.702;23.312;2023-07-20T08:28:09;20.40;;;10.40;;
80694;SDS011;70059;42.702;23.312;2023-07-20T08:30:39;19.83;;;10.13;;
80694;SDS011;70059;42.702;23.312;2023-07-20T08:33:10;13.27;;;10.05;;
80694;SDS011;70059;42.702;23.312;2023-07-20T08:35:38;14.25;;;10.38;;
80694;SDS011;70059;42.702;23.312;2023-07-20T08:38:04;13.50;;;9.85;;
80694;SDS011;70059;42.702;23.312;2023-07-20T08:40:33;18.60;;;10.30;;
80694;SDS011;70059;42.702;23.312;2023-07-20T08:43:04;10.90;;;9.77;;
80694;SDS011;70059;42.702;23.312;2023-07-20T08:45:29;14.20;;;10.40;;
80694;SDS011;70059;42.702;23.312;2023-07-20T08:47:59;21.35;;;11.00;;
80694;SDS011;70059;42.702;23.312;2023-07-20T08:50:28;16.00;;;9.93;;
80694;SDS011;70059;42.702;23.312;2023-07-20T08:52:57;12.98;;;10.55;;
80694;SDS011;70059;42.702;23.312;2023-07-20T08:55:24;18.15;;;11.32;;
80694;SDS011;70059;42.702;23.312;2023-07-20T08:57:52;17.60;;;11.60;;
80694;SDS011;70059;42.702;23.312;2023-07-20T09:00:23;13.98;;;10.27;;
80694;SDS011;70059;42.702;23.312;2023-07-20T09:02:50;17.05;;;10.60;;
80694;SDS011;70059;42.702;23.312;2023-07-20T09:05:17;11.95;;;9.55;;
80694;SDS011;70059;42.702;23.312;2023-07-20T09:07:44;13.95;;;10.40;;
80694;SDS011;70059;42.702;23.312;2023-07-20T09:10:10;21.15;;;12.43;;
80694;SDS011;70059;42.702;23.312;2023-07-20T09:12:37;15.85;;;11.23;;
80694;SDS011;70059;42.702;23.312;2023-07-20T09:15:05;14.32;;;10.80;;
80694;SDS011;70059;42.702;23.312;2023-07-20T09:17:31;12.98;;;11.00;;
80694;SDS011;70059;42.702;23.312;2023-07-20T09:19:57;11.88;;;10.68;;
80694;SDS011;70059;42.702;23.312;2023-07-20T09:22:29;14.63;;;10.30;;
80694;SDS011;70059;42.702;23.312;2023-07-20T09:24:56;12.55;;;10.02;;
80694;SDS011;70059;42.702;23.312;2023-07-20T09:27:22;12.75;;;10.60;;
80694;SDS011;70059;42.702;23.312;2023-07-20T09:30:01;12.23;;;10.95;;
80694;SDS011;70059;42.702;23.312;2023-07-20T09:32:26;14.18;;;10.43;;
80694;SDS011;70059;42.702;23.312;2023-07-20T09:34:52;12.65;;;11.52;;
80694;SDS011;70059;42.702;23.312;2023-07-20T09:37:23;12.70;;;10.75;;
80694;SDS011;70059;42.702;23.312;2023-07-20T09:39:51;11.93;;;10.07;;
80694;SDS011;70059;42.702;23.312;2023-07-20T09:42:18;15.30;;;10.02;;
80694;SDS011;70059;42.702;23.312;2023-07-20T09:44:47;11.95;;;10.20;;
80694;SDS011;70059;42.702;23.312;2023-07-20T09:47:13;12.05;;;10.02;;
80694;SDS011;70059;42.702;23.312;2023-07-20T09:49:47;12.25;;;9.65;;
80694;SDS011;70059;42.702;23.312;2023-07-20T09:52:12;12.60;;;10.00;;
80694;SDS011;70059;42.702;23.312;2023-07-20T09:54:38;14.80;;;10.32;;
80694;SDS011;70059;42.702;23.312;2023-07-20T09:57:08;14.00;;;10.80;;
80694;SDS011;70059;42.702;23.312;2023-07-20T09:59:34;13.57;;;10.50;;
80694;SDS011;70059;42.702;23.312;2023-07-20T10:02:00;10.65;;;9.60;;
80694;SDS011;70059;42.702;23.312;2023-07-20T10:04:29;10.90;;;9.35;;
80694;SDS011;70059;42.702;23.312;2023-07-20T10:06:55;11.68;;;9.65;;
80694;SDS011;70059;42.702;23.312;2023-07-20T10:09:24;10.77;;;9.45;;
80694;SDS011;70059;42.702;23.312;2023-07-20T10:11:50;10.38;;;9.27;;
80694;SDS011;70059;42.702;23.312;2023-07-20T10:14:19;10.60;;;9.60;;
80694;SDS011;70059;42.702;23.312;2023-07-20T10:16:52;11.52;;;10.32;;
80694;SDS011;70059;42.702;23.312;2023-07-20T10:19:25;13.88;;;9.52;;
80694;SDS011;70059;42.702;23.312;2023-07-20T10:22:03;12.13;;;8.82;;
80694;SDS011;70059;42.702;23.312;2023-07-20T10:24:36;12.93;;;9.20;;
80694;SDS011;70059;42.702;23.312;2023-07-20T10:27:02;10.55;;;9.27;;
80694;SDS011;70059;42.702;23.312;2023-07-20T10:29:29;10.85;;;9.70;;
80694;SDS011;70059;42.702;23.312;2023-07-20T10:31:55;10.77;;;8.35;;
80694;SDS011;70059;42.702;23.312;2023-07-20T10:34:21;9.48;;;8.20;;
80694;SDS011;70059;42.702;23.312;2023-07-20T10:36:47;9.90;;;9.00;;
80694;SDS011;70059;42.702;23.312;2023-07-20T10:39:27;9.27;;;8.38;;
80694;SDS011;70059;42.702;23.312;2023-07-20T10:42:08;17.05;;;9.20;;
80694;SDS011;70059;42.702;23.312;2023-07-20T10:44:40;14.17;;;8.63;;
80694;SDS011;70059;42.702;23.312;2023-07-20T10:47:10;13.25;;;8.57;;
80694;SDS011;70059;42.702;23.312;2023-07-20T10:52:21;12.43;;;9.18;;
80694;SDS011;70059;42.702;23.312;2023-07-20T10:54:47;11.70;;;9.40;;
80694;SDS011;70059;42.702;23.312;2023-07-20T10:57:29;9.43;;;8.25;;
80694;SDS011;70059;42.702;23.312;2023-07-20T11:00:14;10.68;;;8.77;;
80694;SDS011;70059;42.702;23.312;2023-07-20T11:02:45;11.60;;;8.68;;
80694;SDS011;70059;42.702;23.312;2023-07-20T11:05:34;14.68;;;10.95;;
80694;SDS011;70059;42.702;23.312;2023-07-20T11:08:05;10.77;;;8.80;;
80694;SDS011;70059;42.702;23.312;2023-07-20T11:18:27;11.68;;;9.48;;
80694;SDS011;70059;42.702;23.312;2023-07-20T11:20:53;12.32;;;9.95;;
80694;SDS011;70059;42.702;23.312;2023-07-20T11:23:22;12.38;;;9.45;;
80694;SDS011;70059;42.702;23.312;2023-07-20T11:25:48;13.18;;;9.50;;
80694;SDS011;70059;42.702;23.312;2023-07-20T11:28:15;11.85;;;9.70;;
80694;SDS011;70059;42.702;23.312;2023-07-20T11:30:40;14.18;;;10.82;;
80694;SDS011;70059;42.702;23.312;2023-07-20T11:33:09;10.82;;;9.77;;
80694;SDS011;70059;42.702;23.312;2023-07-20T11:35:36;12.57;;;10.23;;
80694;SDS011;70059;42.702;23.312;2023-07-20T11:38:08;11.40;;;10.02;;
80694;SDS011;70059;42.702;23.312;2023-07-20T11:40:33;12.00;;;10.80;;
80694;SDS011;70059;42.702;23.312;2023-07-20T11:42:59;12.02;;;10.68;;
80694;SDS011;70059;42.702;23.312;2023-07-20T11:45:25;11.90;;;10.45;;
80694;SDS011;70059;42.702;23.312;2023-07-20T11:47:52;13.23;;;11.20;;
80694;SDS011;70059;42.702;23.312;2023-07-20T11:50:18;12.48;;;11.27;;
80694;SDS011;70059;42.702;23.312;2023-07-20T11:52:43;12.95;;;11.75;;
80694;SDS011;70059;42.702;23.312;2023-07-20T11:55:10;13.23;;;10.70;;
80694;SDS011;70059;42.702;23.312;2023-07-20T11:57:36;12.30;;;11.15;;
80694;SDS011;70059;42.702;23.312;2023-07-20T12:00:03;12.45;;;10.98;;
80694;SDS011;70059;42.702;23.312;2023-07-20T12:02:34;12.70;;;11.23;;
80694;SDS011;70059;42.702;23.312;2023-07-20T12:05:00;11.73;;;10.52;;
80694;SDS011;70059;42.702;23.312;2023-07-20T12:07:28;12.03;;;10.50;;
80694;SDS011;70059;42.702;23.312;2023-07-20T12:12:33;12.63;;;11.45;;
80694;SDS011;70059;42.702;23.312;2023-07-20T12:15:13;11.05;;;10.15;;
80694;SDS011;70059;42.702;23.312;2023-07-20T12:17:46;11.95;;;10.70;;
80694;SDS011;70059;42.702;23.312;2023-07-20T12:20:26;12.85;;;10.50;;
80694;SDS011;70059;42.702;23.312;2023-07-20T12:23:03;11.73;;;10.52;;
80694;SDS011;70059;42.702;23.312;2023-07-20T12:28:24;11.75;;;10.57;;
80694;SDS011;70059;42.702;23.312;2023-07-20T12:30:51;12.48;;;11.18;;
80694;SDS011;70059;42.702;23.312;2023-07-20T12:33:21;12.77;;;9.20;;
80694;SDS011;70059;42.702;23.312;2023-07-20T12:35:47;15.00;;;11.45;;
80694;SDS011;70059;42.702;23.312;2023-07-20T12:38:14;15.05;;;10.70;;
80694;SDS011;70059;42.702;23.312;2023-07-20T12:40:41;16.35;;;10.32;;
80694;SDS011;70059;42.702;23.312;2023-07-20T12:43:08;15.13;;;10.65;;
80694;SDS011;70059;42.702;23.312;2023-07-20T12:45:34;12.75;;;11.10;;
80694;SDS011;70059;42.702;23.312;2023-07-20T12:47:59;11.60;;;10.50;;
80694;SDS011;70059;42.702;23.312;2023-07-20T12:50:26;11.82;;;10.75;;
80694;SDS011;70059;42.702;23.312;2023-07-20T12:52:52;11.70;;;10.10;;
80694;SDS011;70059;42.702;23.312;2023-07-20T12:55:17;12.77;;;11.48;;
80694;SDS011;70059;42.702;23.312;2023-07-20T12:57:43;10.68;;;9.57;;
80694;SDS011;70059;42.702;23.312;2023-07-20T13:00:09;12.40;;;10.13;;
80694;SDS011;70059;42.702;23.312;2023-07-20T13:02:37;11.27;;;10.15;;
80694;SDS011;70059;42.702;23.312;2023-07-20T13:05:03;12.90;;;10.55;;
80694;SDS011;70059;42.702;23.312;2023-07-20T13:07:32;15.18;;;11.00;;
80694;SDS011;70059;42.702;23.312;2023-07-20T13:10:00;19.77;;;10.48;;
80694;SDS011;70059;42.702;23.312;2023-07-20T13:12:26;15.27;;;10.18;;
80694;SDS011;70059;42.702;23.312;2023-07-20T13:14:54;12.68;;;9.85;;
80694;SDS011;70059;42.702;23.312;2023-07-20T13:17:21;11.15;;;9.63;;
80694;SDS011;70059;42.702;23.312;2023-07-20T13:19:47;20.25;;;10.00;;
80694;SDS011;70059;42.702;23.312;2023-07-20T13:22:13;21.95;;;9.98;;
80694;SDS011;70059;42.702;23.312;2023-07-20T13:24:39;17.02;;;10.38;;
80694;SDS011;70059;42.702;23.312;2023-07-20T13:27:06;14.02;;;9.90;;
80694;SDS011;70059;42.702;23.312;2023-07-20T13:29:31;13.75;;;9.95;;
80694;SDS011;70059;42.702;23.312;2023-07-20T13:31:57;15.68;;;9.68;;
80694;SDS011;70059;42.702;23.312;2023-07-20T13:34:24;14.73;;;9.85;;
80694;SDS011;70059;42.702;23.312;2023-07-20T13:36:51;23.55;;;10.68;;
80694;SDS011;70059;42.702;23.312;2023-07-20T13:39:16;15.38;;;10.50;;
80694;SDS011;70059;42.702;23.312;2023-07-20T13:41:42;16.75;;;11.13;;
80694;SDS011;70059;42.702;23.312;2023-07-20T13:44:12;10.73;;;8.80;;
80694;SDS011;70059;42.702;23.312;2023-07-20T13:46:37;14.80;;;9.77;;
80694;SDS011;70059;42.702;23.312;2023-07-20T13:49:04;15.13;;;10.18;;
80694;SDS011;70059;42.702;23.312;2023-07-20T13:51:30;17.75;;;10.23;;
80694;SDS011;70059;42.702;23.312;2023-07-20T13:53:56;18.77;;;10.27;;
80694;SDS011;70059;42.702;23.312;2023-07-20T13:56:23;13.80;;;9.43;;
80694;SDS011;70059;42.702;23.312;2023-07-20T13:58:51;12.77;;;9.30;;
80694;SDS011;70059;42.702;23.312;2023-07-20T14:01:17;13.85;;;8.95;;
80694;SDS011;70059;42.702;23.312;2023-07-20T14:03:43;20.55;;;9.13;;
80694;SDS011;70059;42.702;23.312;2023-07-20T14:06:08;14.07;;;9.45;;
80694;SDS011;70059;42.702;23.312;2023-07-20T14:08:34;18.80;;;9.52;;
80694;SDS011;70059;42.702;23.312;2023-07-20T14:11:00;15.25;;;9.20;;
80694;SDS011;70059;42.702;23.312;2023-07-20T14:13:26;13.20;;;9.07;;
80694;SDS011;70059;42.702;23.312;2023-07-20T14:15:52;12.38;;;8.68;;
80694;SDS011;70059;42.702;23.312;2023-07-20T14:18:17;14.88;;;9.57;;
80694;SDS011;70059;42.702;23.312;2023-07-20T14:20:43;12.60;;;8.98;;
80694;SDS011;70059;42.702;23.312;2023-07-20T14:23:09;10.20;;;9.18;;
80694;SDS011;70059;42.702;23.312;2023-07-20T14:25:35;13.48;;;10.05;;
80694;SDS011;70059;42.702;23.312;2023-07-20T14:28:01;10.13;;;9.10;;
80694;SDS011;70059;42.702;23.312;2023-07-20T14:30:26;12.82;;;9.48;;
80694;SDS011;70059;42.702;23.312;2023-07-20T14:32:52;18.38;;;9.35;;
80694;SDS011;70059;42.702;23.312;2023-07-20T14:35:18;13.65;;;9.30;;
80694;SDS011;70059;42.702;23.312;2023-07-20T14:37:44;19.73;;;9.75;;
80694;SDS011;70059;42.702;23.312;2023-07-20T14:40:12;11.88;;;9.02;;
80694;SDS011;70059;42.702;23.312;2023-07-20T14:42:38;10.68;;;9.00;;